Time;durP1;ratioP1;P1;durP2;ratioP2;P2;SDS_P1;SDS_P2;PMS_P1;PMS_P2;Temp;Humidity;BMP_temperature;BMP_pressure;BME280_temperature;BME280_humidity;BME280_pressure;Samples;Min_cycle;Max_cycle;Signal;HPM_P1;HPM_P2
2024/04/06 00:01:16;;;;;;;;;11.33;8.67;;;;;;;;5097399;27;45315;-49
2024/04/06 00:03:41;;;;;;;;;11.33;11.33;;;;;;;;5096491;27;45441;-49
2024/04/06 00:06:07;;;;;;;;;11.67;11.67;;;;;;;;5101112;27;45231;-48
2024/04/06 00:08:32;;;;;;;;;8.67;7.33;;;;;;;;5090496;27;46314;-50
2024/04/06 00:10:57;;;;;;;;;10.33;9.00;;;;;;;;5098590;27;45251;-51
2024/04/06 00:13:22;;;;;;;;;11.67;8.33;;;;;;;;5092920;27;45393;-50
2024/04/06 00:15:47;;;;;;;;;13.00;11.67;;;;;;;;5098877;27;45241;-50
2024/04/06 00:18:13;;;;;;;;;12.00;11.00;;;;;;;;5074760;28;45254;-50
2024/04/06 00:20:38;;;;;;;;;11.67;11.67;;;;;;;;5098585;27;45496;-50
2024/04/06 00:23:04;;;;;;;;;13.50;10.75;;;;;;;;5073924;28;45288;-51
2024/04/06 00:25:29;;;;;;;;;10.33;9.33;;;;;;;;5098228;27;46294;-52
2024/04/06 00:27:54;;;;;;;;;11.33;11.33;;;;;;;;5096167;27;45909;-51
2024/04/06 00:30:19;;;;;;;;;9.33;9.33;;;;;;;;5097598;27;45394;-48
2024/04/06 00:32:46;;;;;;;;;11.00;11.00;;;;;;;;5095349;27;45455;-49
2024/04/06 00:35:11;;;;;;;;;12.67;11.33;;;;;;;;5066110;28;45634;-51
2024/04/06 00:37:36;;;;;;;;;14.33;12.33;;;;;;;;5093302;27;45369;-51
2024/04/06 00:40:01;;;;;;;;;12.00;11.00;;;;;;;;5095258;27;45314;-49
2024/04/06 00:42:27;;;;;;;;;12.67;12.33;;;;;;;;5089154;27;45398;-48
2024/04/06 00:44:52;;;;;;;;;16.67;12.00;;;;;;;;5098558;27;45349;-48
2024/04/06 00:47:18;;;;;;;;;14.00;10.67;;;;;;;;5096030;27;45482;-48
2024/04/06 00:49:43;;;;;;;;;13.33;11.33;;;;;;;;5088251;27;45605;-48
2024/04/06 00:52:08;;;;;;;;;12.67;11.33;;;;;;;;5092042;27;45444;-51
2024/04/06 00:54:33;;;;;;;;;12.67;11.67;;;;;;;;5094287;27;45519;-51
2024/04/06 00:56:59;;;;;;;;;12.67;9.33;;;;;;;;5098350;27;45334;-50
2024/04/06 00:59:24;;;;;;;;;11.33;10.00;;;;;;;;5099115;27;45275;-52
2024/04/06 01:01:51;;;;;;;;;13.33;10.67;;;;;;;;5091167;27;45462;-48
2024/04/06 01:04:16;;;;;;;;;13.33;12.67;;;;;;;;5089840;27;45538;-48
2024/04/06 01:06:41;;;;;;;;;14.67;12.67;;;;;;;;5090746;27;46311;-50
2024/04/06 01:09:07;;;;;;;;;12.00;11.00;;;;;;;;5092524;27;45566;-49
2024/04/06 01:11:35;;;;;;;;;10.67;10.00;;;;;;;;5094890;27;45410;-49
2024/04/06 01:14:00;;;;;;;;;15.33;11.67;;;;;;;;5096580;27;45550;-48
2024/04/06 01:16:26;;;;;;;;;9.67;9.33;;;;;;;;5099829;27;45328;-49
2024/04/06 01:18:51;;;;;;;;;13.00;11.33;;;;;;;;5092996;27;45481;-52
2024/04/06 01:21:18;;;;;;;;;9.33;8.33;;;;;;;;5096102;27;45672;-51
2024/04/06 01:23:44;;;;;;;;;13.00;10.00;;;;;;;;5098342;27;45373;-52
2024/04/06 01:26:09;;;;;;;;;10.33;7.67;;;;;;;;5095454;27;45488;-52
2024/04/06 01:28:34;;;;;;;;;9.33;8.33;;;;;;;;5091497;27;45419;-48
2024/04/06 01:30:59;;;;;;;;;6.67;6.67;;;;;;;;5090276;27;45560;-50
2024/04/06 01:33:24;;;;;;;;;7.00;7.00;;;;;;;;5097061;27;45129;-50
2024/04/06 01:35:49;;;;;;;;;6.00;6.00;;;;;;;;5093003;27;45594;-50
2024/04/06 01:38:15;;;;;;;;;6.33;5.67;;;;;;;;5092335;27;45246;-48
2024/04/06 01:40:40;;;;;;;;;6.67;6.33;;;;;;;;5096550;27;45468;-51
2024/04/06 01:43:05;;;;;;;;;6.00;5.00;;;;;;;;5096700;27;45370;-48
2024/04/06 01:45:31;;;;;;;;;9.00;6.33;;;;;;;;5098850;27;46092;-49
2024/04/06 01:47:56;;;;;;;;;5.67;5.67;;;;;;;;5090743;27;45349;-52
2024/04/06 01:50:21;;;;;;;;;6.67;6.33;;;;;;;;5091104;27;45267;-49
2024/04/06 01:52:46;;;;;;;;;6.67;5.67;;;;;;;;5095738;27;45497;-49
2024/04/06 01:55:11;;;;;;;;;6.00;6.00;;;;;;;;5090554;27;46182;-51
2024/04/06 01:57:37;;;;;;;;;5.33;4.33;;;;;;;;5098518;27;45473;-48
2024/04/06 02:00:04;;;;;;;;;8.67;4.67;;;;;;;;5091025;27;45514;-51
2024/04/06 02:02:29;;;;;;;;;5.33;5.33;;;;;;;;5097159;27;45343;-51
2024/04/06 02:04:54;;;;;;;;;5.00;5.00;;;;;;;;5098986;27;45972;-50
2024/04/06 02:07:19;;;;;;;;;5.67;5.67;;;;;;;;5092374;27;45419;-49
2024/04/06 02:09:44;;;;;;;;;5.67;5.33;;;;;;;;5097482;27;45287;-51
2024/04/06 02:12:10;;;;;;;;;5.67;5.67;;;;;;;;5092440;27;45496;-50
2024/04/06 02:14:35;;;;;;;;;6.33;5.33;;;;;;;;5089360;27;46155;-51
2024/04/06 02:17:03;;;;;;;;;2.67;2.67;;;;;;;;5093393;27;45460;-51
2024/04/06 02:19:28;;;;;;;;;0.00;0.00;;;;;;;;5090854;27;45340;-48
2024/04/06 02:21:53;;;;;;;;;7.67;5.33;;;;;;;;5094137;27;45594;-49
2024/04/06 02:24:18;;;;;;;;;6.67;6.33;;;;;;;;5097817;27;45511;-49
2024/04/06 02:26:44;;;;;;;;;3.67;2.67;;;;;;;;5096571;27;45227;-51
2024/04/06 02:29:09;;;;;;;;;6.33;5.33;;;;;;;;5091922;27;45283;-50
2024/04/06 02:31:36;;;;;;;;;6.67;6.33;;;;;;;;5088975;27;45267;-49
2024/04/06 02:34:01;;;;;;;;;9.67;6.67;;;;;;;;5094114;27;46508;-54
2024/04/06 02:36:26;;;;;;;;;5.00;5.00;;;;;;;;5091704;27;45369;-49
2024/04/06 02:38:52;;;;;;;;;5.33;5.33;;;;;;;;5088021;27;46616;-52
2024/04/06 02:41:17;;;;;;;;;8.00;7.00;;;;;;;;5098999;27;45537;-49
2024/04/06 02:43:42;;;;;;;;;7.00;6.00;;;;;;;;5090415;27;46530;-49
2024/04/06 02:46:07;;;;;;;;;6.00;6.00;;;;;;;;5092538;27;45239;-50
2024/04/06 02:48:32;;;;;;;;;4.67;4.67;;;;;;;;5096759;27;45489;-52
2024/04/06 02:50:58;;;;;;;;;5.33;4.33;;;;;;;;5102165;27;45212;-50
2024/04/06 02:53:23;;;;;;;;;6.00;6.00;;;;;;;;5093917;27;46535;-52
2024/04/06 02:55:48;;;;;;;;;4.67;4.67;;;;;;;;5096367;27;45511;-50
2024/04/06 02:58:13;;;;;;;;;3.00;3.00;;;;;;;;5101654;27;45291;-52
2024/04/06 03:00:38;;;;;;;;;6.33;3.67;;;;;;;;5101704;27;45244;-48
2024/04/06 03:03:04;;;;;;;;;5.00;5.00;;;;;;;;5100842;27;46430;-50
2024/04/06 03:05:29;;;;;;;;;6.33;4.33;;;;;;;;5098975;27;45386;-52
2024/04/06 03:07:54;;;;;;;;;7.33;4.67;;;;;;;;5101952;27;45314;-49
2024/04/06 03:10:19;;;;;;;;;4.67;4.67;;;;;;;;5097264;27;45298;-50
2024/04/06 03:12:44;;;;;;;;;5.00;5.00;;;;;;;;5093661;27;46611;-49
2024/04/06 03:15:09;;;;;;;;;5.00;5.00;;;;;;;;5089138;27;45534;-48
2024/04/06 03:17:35;;;;;;;;;5.00;5.00;;;;;;;;5094702;27;45361;-48
2024/04/06 03:20:00;;;;;;;;;4.67;4.67;;;;;;;;5101689;27;45316;-49
2024/04/06 03:22:25;;;;;;;;;5.67;5.67;;;;;;;;5096433;27;45379;-49
2024/04/06 03:24:50;;;;;;;;;6.00;6.00;;;;;;;;5094770;27;45351;-48
2024/04/06 03:27:15;;;;;;;;;6.00;6.00;;;;;;;;5094462;27;45413;-52
2024/04/06 03:29:41;;;;;;;;;5.00;5.00;;;;;;;;5099332;27;45405;-51
2024/04/06 03:32:06;;;;;;;;;6.67;5.00;;;;;;;;5089898;27;46453;-48
2024/04/06 03:34:31;;;;;;;;;4.67;3.33;;;;;;;;5092041;27;45365;-52
2024/04/06 03:36:57;;;;;;;;;5.00;5.00;;;;;;;;5099013;27;45414;-49
2024/04/06 03:39:23;;;;;;;;;3.67;3.67;;;;;;;;5095126;27;45594;-52
2024/04/06 03:41:48;;;;;;;;;3.67;3.67;;;;;;;;5094246;27;46886;-49
2024/04/06 03:44:13;;;;;;;;;5.00;5.00;;;;;;;;5094358;27;45416;-49
2024/04/06 03:46:38;;;;;;;;;4.00;4.00;;;;;;;;5094070;27;45496;-52
2024/04/06 03:49:03;;;;;;;;;4.33;4.33;;;;;;;;5100954;27;45294;-50
2024/04/06 03:51:29;;;;;;;;;3.67;3.67;;;;;;;;5098214;27;46370;-50
2024/04/06 03:53:54;;;;;;;;;1.00;1.00;;;;;;;;5092274;27;45429;-52
2024/04/06 03:56:19;;;;;;;;;4.33;4.33;;;;;;;;5100960;27;45266;-48
2024/04/06 03:58:44;;;;;;;;;4.33;4.33;;;;;;;;5096470;27;45371;-52
2024/04/06 04:01:09;;;;;;;;;6.67;3.67;;;;;;;;5075778;27;46244;-52
2024/04/06 04:03:35;;;;;;;;;4.00;4.00;;;;;;;;5096601;27;45374;-52
2024/04/06 04:06:00;;;;;;;;;5.00;4.00;;;;;;;;5097880;27;45623;-52
2024/04/06 04:08:25;;;;;;;;;4.33;3.00;;;;;;;;5093232;27;45378;-48
2024/04/06 04:10:51;;;;;;;;;3.00;3.00;;;;;;;;5097703;27;45412;-51
2024/04/06 04:13:19;;;;;;;;;4.00;4.00;;;;;;;;5096048;27;45421;-51
2024/04/06 04:15:44;;;;;;;;;4.00;2.67;;;;;;;;5091056;27;45359;-51
2024/04/06 04:18:12;;;;;;;;;3.33;3.33;;;;;;;;5096291;27;45248;-50
2024/04/06 04:20:37;;;;;;;;;2.67;2.67;;;;;;;;5097140;27;46404;-51
2024/04/06 04:23:02;;;;;;;;;2.33;2.33;;;;;;;;5096522;27;45424;-48
2024/04/06 04:25:28;;;;;;;;;2.00;2.00;;;;;;;;5096860;27;45643;-50
2024/04/06 04:27:57;;;;;;;;;4.67;3.00;;;;;;;;5090069;27;45621;-50
2024/04/06 04:30:22;;;;;;;;;3.00;3.00;;;;;;;;5072122;27;46442;-50
2024/04/06 04:32:48;;;;;;;;;3.00;1.33;;;;;;;;5099041;27;45207;-51
2024/04/06 04:35:13;;;;;;;;;3.00;3.00;;;;;;;;5093553;27;45283;-49
2024/04/06 04:37:38;;;;;;;;;2.00;2.00;;;;;;;;5100552;27;45177;-50
2024/04/06 04:40:04;;;;;;;;;2.00;2.00;;;;;;;;5094005;27;46147;-48
2024/04/06 04:42:29;;;;;;;;;2.00;2.00;;;;;;;;5076567;27;45949;-51
2024/04/06 04:44:57;;;;;;;;;2.00;2.00;;;;;;;;5089051;27;45450;-51
2024/04/06 04:47:22;;;;;;;;;2.00;2.00;;;;;;;;5096255;27;45377;-49
2024/04/06 04:49:48;;;;;;;;;2.00;2.00;;;;;;;;5098882;27;46016;-48
2024/04/06 04:52:13;;;;;;;;;2.00;2.00;;;;;;;;5092324;27;45287;-51
2024/04/06 04:54:38;;;;;;;;;1.00;1.00;;;;;;;;5099992;27;45480;-50
2024/04/06 04:57:03;;;;;;;;;3.00;3.00;;;;;;;;5071644;27;45366;-51
2024/04/06 04:59:28;;;;;;;;;1.00;1.00;;;;;;;;5095123;27;45370;-52
2024/04/06 05:01:53;;;;;;;;;1.33;1.33;;;;;;;;5093596;27;45372;-51
2024/04/06 05:04:19;;;;;;;;;2.33;2.33;;;;;;;;5087365;27;45334;-47
2024/04/06 05:06:44;;;;;;;;;1.67;1.00;;;;;;;;5091799;27;45296;-52
2024/04/06 05:09:10;;;;;;;;;2.00;2.00;;;;;;;;5097718;27;46583;-52
2024/04/06 05:11:35;;;;;;;;;5.00;2.00;;;;;;;;5098830;27;45676;-48
2024/04/06 05:14:00;;;;;;;;;3.00;3.00;;;;;;;;5099109;27;45291;-47
2024/04/06 05:16:25;;;;;;;;;5.33;2.00;;;;;;;;5097688;27;45322;-48
2024/04/06 05:18:50;;;;;;;;;2.67;2.00;;;;;;;;5094052;27;45410;-49
2024/04/06 05:21:15;;;;;;;;;2.33;2.33;;;;;;;;5091705;27;45335;-48
2024/04/06 05:23:41;;;;;;;;;1.67;1.33;;;;;;;;5098198;27;45600;-48
2024/04/06 05:26:06;;;;;;;;;1.67;1.67;;;;;;;;5094595;27;45460;-48
2024/04/06 05:28:31;;;;;;;;;2.67;2.67;;;;;;;;5093636;27;46233;-48
2024/04/06 05:30:56;;;;;;;;;2.00;2.00;;;;;;;;5093563;27;45419;-48
2024/04/06 05:33:22;;;;;;;;;1.33;1.33;;;;;;;;5088919;27;45570;-49
2024/04/06 05:35:48;;;;;;;;;1.67;1.67;;;;;;;;5095944;27;45488;-47
2024/04/06 05:38:14;;;;;;;;;0.67;0.67;;;;;;;;5088852;27;46294;-48
2024/04/06 05:40:40;;;;;;;;;2.33;2.33;;;;;;;;5093593;27;45497;-47
2024/04/06 05:43:05;;;;;;;;;3.00;1.00;;;;;;;;5075701;27;45614;-49
2024/04/06 05:45:30;;;;;;;;;4.00;2.00;;;;;;;;5089877;27;45375;-48
2024/04/06 05:48:01;;;;;;;;;3.00;1.33;;;;;;;;5091131;27;46482;-51
2024/04/06 05:50:26;;;;;;;;;2.00;2.00;;;;;;;;5097109;27;45356;-52
2024/04/06 05:52:51;;;;;;;;;2.00;2.00;;;;;;;;5093953;27;45137;-48
2024/04/06 05:55:17;;;;;;;;;1.00;1.00;;;;;;;;5093821;27;45672;-50
2024/04/06 05:57:42;;;;;;;;;2.00;2.00;;;;;;;;5099365;27;46200;-48
2024/04/06 06:00:09;;;;;;;;;0.67;0.67;;;;;;;;5073724;27;45880;-48
2024/04/06 06:02:35;;;;;;;;;1.00;1.00;;;;;;;;5091905;27;45522;-48
2024/04/06 06:05:00;;;;;;;;;2.00;2.00;;;;;;;;5099292;27;45413;-48
2024/04/06 06:07:25;;;;;;;;;1.00;1.00;;;;;;;;5098778;27;46358;-49
2024/04/06 06:09:50;;;;;;;;;1.00;1.00;;;;;;;;5098054;27;45410;-51
2024/04/06 06:12:16;;;;;;;;;1.00;1.00;;;;;;;;5096842;27;45511;-57
2024/04/06 06:14:41;;;;;;;;;2.00;1.50;;;;;;;;5099100;27;45491;-51
2024/04/06 06:17:07;;;;;;;;;1.00;1.00;;;;;;;;5084234;27;47089;-48
2024/04/06 06:19:32;;;;;;;;;0.33;0.33;;;;;;;;5102674;27;45248;-48
2024/04/06 06:21:57;;;;;;;;;1.00;1.00;;;;;;;;5098389;27;45310;-50
2024/04/06 06:24:23;;;;;;;;;4.67;1.33;;;;;;;;5096438;27;45317;-52
2024/04/06 06:26:48;;;;;;;;;1.33;1.33;;;;;;;;5102327;27;46070;-50
2024/04/06 06:29:13;;;;;;;;;1.67;0.33;;;;;;;;5094021;27;45556;-49
2024/04/06 06:31:39;;;;;;;;;1.00;1.00;;;;;;;;5084647;27;45282;-51
2024/04/06 06:34:04;;;;;;;;;3.67;2.67;;;;;;;;5093228;27;45280;-50
2024/04/06 06:36:29;;;;;;;;;0.67;0.67;;;;;;;;5095838;27;45610;-50
2024/04/06 06:38:55;;;;;;;;;1.33;1.33;;;;;;;;5092912;27;45236;-48
2024/04/06 06:41:20;;;;;;;;;2.00;0.33;;;;;;;;5093377;27;46700;-50
2024/04/06 06:43:45;;;;;;;;;1.33;0.67;;;;;;;;5095087;27;45460;-47
2024/04/06 06:46:10;;;;;;;;;0.75;0.75;;;;;;;;5097674;27;46161;-49
2024/04/06 06:48:36;;;;;;;;;0.67;0.67;;;;;;;;5099796;27;45604;-51
2024/04/06 06:51:02;;;;;;;;;0.67;0.67;;;;;;;;5102435;27;45591;-47
2024/04/06 06:53:27;;;;;;;;;2.75;1.00;;;;;;;;5096636;27;46345;-47
2024/04/06 06:55:52;;;;;;;;;2.00;1.00;;;;;;;;5098009;27;46320;-48
2024/04/06 06:58:18;;;;;;;;;0.25;0.25;;;;;;;;5083277;27;45354;-47
2024/04/06 07:00:46;;;;;;;;;2.67;1.33;;;;;;;;5102345;27;45310;-47
2024/04/06 07:03:11;;;;;;;;;0.67;0.67;;;;;;;;5096086;27;45543;-50
2024/04/06 07:05:36;;;;;;;;;0.67;0.67;;;;;;;;5101916;27;46466;-48
2024/04/06 07:08:02;;;;;;;;;0.67;0.67;;;;;;;;5095396;27;45484;-47
2024/04/06 07:10:27;;;;;;;;;1.00;1.00;;;;;;;;5102408;27;45449;-50
2024/04/06 07:12:52;;;;;;;;;1.33;1.00;;;;;;;;5095623;27;45399;-49
2024/04/06 07:15:17;;;;;;;;;2.67;1.00;;;;;;;;5101650;27;45744;-48
2024/04/06 07:17:42;;;;;;;;;1.67;1.67;;;;;;;;5102280;27;45290;-49
2024/04/06 07:20:08;;;;;;;;;0.75;0.75;;;;;;;;5101749;27;45386;-50
2024/04/06 07:22:33;;;;;;;;;1.00;1.00;;;;;;;;5096498;27;45818;-50
2024/04/06 07:24:58;;;;;;;;;0.00;0.00;;;;;;;;5095581;27;45486;-48
2024/04/06 07:27:24;;;;;;;;;1.00;1.00;;;;;;;;5094406;27;45469;-50
2024/04/06 07:29:49;;;;;;;;;1.00;1.00;;;;;;;;5095877;27;45372;-49
2024/04/06 07:32:14;;;;;;;;;1.00;1.00;;;;;;;;5091090;27;45435;-50
2024/04/06 07:34:39;;;;;;;;;2.00;0.00;;;;;;;;5095982;27;46087;-51
2024/04/06 07:37:05;;;;;;;;;1.33;1.33;;;;;;;;5077228;27;45400;-47
2024/04/06 07:39:30;;;;;;;;;0.67;0.33;;;;;;;;5088575;27;45351;-49
2024/04/06 07:41:55;;;;;;;;;1.33;0.67;;;;;;;;5098903;27;45436;-49
2024/04/06 07:44:20;;;;;;;;;0.67;0.67;;;;;;;;5095414;27;45357;-51
2024/04/06 07:46:45;;;;;;;;;0.00;0.00;;;;;;;;5100380;27;45274;-50
2024/04/06 07:49:11;;;;;;;;;3.00;1.75;;;;;;;;5076274;27;45247;-52
2024/04/06 07:51:36;;;;;;;;;0.75;0.25;;;;;;;;5096991;27;45356;-50
2024/04/06 07:54:01;;;;;;;;;1.00;1.00;;;;;;;;5100452;27;45411;-48
2024/04/06 07:56:26;;;;;;;;;3.25;2.00;;;;;;;;5101606;27;45315;-48
2024/04/06 07:58:52;;;;;;;;;0.75;0.75;;;;;;;;5101184;27;45340;-51
2024/04/06 08:01:17;;;;;;;;;1.00;1.00;;;;;;;;5096359;27;45231;-51
2024/04/06 08:03:42;;;;;;;;;3.00;1.75;;;;;;;;5096600;27;45768;-49
2024/04/06 08:06:07;;;;;;;;;3.00;1.00;;;;;;;;5097476;27;45490;-52
2024/04/06 08:08:34;;;;;;;;;1.00;1.00;;;;;;;;5095162;27;45384;-51
2024/04/06 08:11:00;;;;;;;;;0.25;0.25;;;;;;;;5100449;27;45320;-50
2024/04/06 08:13:25;;;;;;;;;0.75;0.75;;;;;;;;5075027;28;46120;-51
2024/04/06 08:15:50;;;;;;;;;1.25;0.00;;;;;;;;5099685;27;45375;-53
2024/04/06 08:18:15;;;;;;;;;1.00;1.00;;;;;;;;5095177;27;45672;-51
2024/04/06 08:20:41;;;;;;;;;2.50;2.00;;;;;;;;5081408;27;45306;-52
2024/04/06 08:23:06;;;;;;;;;1.00;1.00;;;;;;;;5100466;27;46752;-50
2024/04/06 08:25:31;;;;;;;;;1.00;1.00;;;;;;;;5094162;27;45783;-48
2024/04/06 08:27:56;;;;;;;;;1.25;0.75;;;;;;;;5099240;27;45367;-52
2024/04/06 08:30:22;;;;;;;;;1.00;1.00;;;;;;;;5078042;27;45330;-53
2024/04/06 08:32:54;;;;;;;;;1.00;1.00;;;;;;;;5087828;27;45456;-50
2024/04/06 08:35:19;;;;;;;;;1.00;1.00;;;;;;;;5093569;27;45378;-51
2024/04/06 08:37:44;;;;;;;;;1.50;1.50;;;;;;;;5080344;27;45332;-51
2024/04/06 08:40:12;;;;;;;;;1.00;1.00;;;;;;;;5099322;27;45596;-49
2024/04/06 08:42:41;;;;;;;;;1.00;1.00;;;;;;;;5087306;27;45496;-49
2024/04/06 08:45:08;;;;;;;;;1.00;1.00;;;;;;;;5075163;28;46318;-50
2024/04/06 08:47:34;;;;;;;;;1.00;1.00;;;;;;;;5081558;27;45427;-49
2024/04/06 08:50:00;;;;;;;;;2.00;2.00;;;;;;;;5087241;27;45312;-52
2024/04/06 08:52:25;;;;;;;;;0.00;0.00;;;;;;;;5087036;27;45486;-50
2024/04/06 08:54:51;;;;;;;;;0.50;0.00;;;;;;;;5080629;27;45283;-49
2024/04/06 08:57:16;;;;;;;;;1.00;1.00;;;;;;;;5075515;27;45958;-49
2024/04/06 08:59:42;;;;;;;;;1.00;1.00;;;;;;;;5089767;27;45434;-51
2024/04/06 09:02:07;;;;;;;;;1.00;1.00;;;;;;;;5086022;27;46533;-52
2024/04/06 09:04:32;;;;;;;;;1.00;0.25;;;;;;;;5081532;27;45348;-49
2024/04/06 09:06:57;;;;;;;;;1.00;1.00;;;;;;;;5093648;27;45362;-49
2024/04/06 09:09:22;;;;;;;;;1.75;1.00;;;;;;;;5080518;27;45397;-52
2024/04/06 09:11:47;;;;;;;;;1.00;1.00;;;;;;;;5100102;27;46185;-51
2024/04/06 09:14:13;;;;;;;;;0.75;0.00;;;;;;;;5089287;27;45528;-49
2024/04/06 09:16:39;;;;;;;;;0.00;0.00;;;;;;;;5090815;27;45292;-48
2024/04/06 09:19:05;;;;;;;;;3.00;1.00;;;;;;;;5096414;27;45504;-53
2024/04/06 09:21:30;;;;;;;;;0.50;0.50;;;;;;;;5086925;27;46203;-51
2024/04/06 09:23:57;;;;;;;;;1.00;1.00;;;;;;;;5099096;27;45348;-63
2024/04/06 09:26:22;;;;;;;;;2.00;1.00;;;;;;;;5087866;27;45424;-63
2024/04/06 09:28:50;;;;;;;;;2.50;1.25;;;;;;;;5083515;27;45488;-62
2024/04/06 09:31:18;;;;;;;;;2.00;0.00;;;;;;;;5092131;27;46340;-62
2024/04/06 09:33:45;;;;;;;;;0.00;0.00;;;;;;;;5069536;28;45636;-62
2024/04/06 09:36:10;;;;;;;;;4.00;1.00;;;;;;;;5082348;27;45290;-62
2024/04/06 09:38:35;;;;;;;;;0.25;0.25;;;;;;;;5080525;27;45548;-62
2024/04/06 09:41:00;;;;;;;;;1.00;1.00;;;;;;;;5092897;27;46506;-62
2024/04/06 09:43:26;;;;;;;;;0.00;0.00;;;;;;;;5095692;27;45224;-63
2024/04/06 09:45:51;;;;;;;;;0.75;0.00;;;;;;;;5085534;27;45230;-59
2024/04/06 09:48:18;;;;;;;;;1.25;1.00;;;;;;;;5089754;27;46089;-58
2024/04/06 09:50:44;;;;;;;;;1.00;1.00;;;;;;;;5090174;27;45698;-58
2024/04/06 09:53:10;;;;;;;;;0.25;0.25;;;;;;;;5087230;27;45565;-58
2024/04/06 09:55:36;;;;;;;;;2.75;1.00;;;;;;;;5083251;27;45422;-60
2024/04/06 09:58:02;;;;;;;;;2.00;0.75;;;;;;;;5083876;27;45400;-60
2024/04/06 10:00:27;;;;;;;;;0.75;0.75;;;;;;;;5080688;27;45543;-63
2024/04/06 10:02:53;;;;;;;;;1.00;1.00;;;;;;;;5094590;27;45729;-51
2024/04/06 10:05:18;;;;;;;;;3.25;1.25;;;;;;;;5064721;27;45398;-62
2024/04/06 10:07:50;;;;;;;;;1.50;1.00;;;;;;;;5094784;27;45628;-58
2024/04/06 10:10:15;;;;;;;;;4.00;0.75;;;;;;;;5096974;27;46807;-60
2024/04/06 10:12:41;;;;;;;;;1.00;1.00;;;;;;;;5080278;27;45370;-63
2024/04/06 10:15:09;;;;;;;;;1.00;1.00;;;;;;;;5085246;27;45476;-63
2024/04/06 10:17:41;;;;;;;;;1.00;1.00;;;;;;;;5095467;27;45220;-62
2024/04/06 10:20:08;;;;;;;;;1.00;1.00;;;;;;;;5072829;27;48112;-52
2024/04/06 10:22:42;;;;;;;;;0.80;0.80;;;;;;;;5072750;28;46078;-55
2024/04/06 10:25:07;;;;;;;;;0.75;0.75;;;;;;;;5091035;27;45629;-49
2024/04/06 10:27:37;;;;;;;;;0.25;0.25;;;;;;;;5095516;27;45490;-61
2024/04/06 10:30:03;;;;;;;;;1.50;1.50;;;;;;;;5093039;27;46544;-54
2024/04/06 10:32:30;;;;;;;;;1.00;1.00;;;;;;;;5091919;27;45520;-57
2024/04/06 10:34:58;;;;;;;;;2.00;1.00;;;;;;;;5084114;27;45443;-52
2024/04/06 10:37:24;;;;;;;;;2.25;1.25;;;;;;;;5063185;27;45579;-53
2024/04/06 10:39:49;;;;;;;;;2.00;2.00;;;;;;;;5075143;27;45617;-63
2024/04/06 10:42:14;;;;;;;;;2.00;2.00;;;;;;;;5072082;27;45547;-52
2024/04/06 10:44:40;;;;;;;;;1.50;1.50;;;;;;;;5077732;27;45771;-54
2024/04/06 10:47:08;;;;;;;;;1.00;1.00;;;;;;;;5092593;27;45643;-64
2024/04/06 10:49:33;;;;;;;;;1.25;1.25;;;;;;;;5051739;27;45521;-57
2024/04/06 10:51:59;;;;;;;;;1.25;1.25;;;;;;;;5086049;27;45417;-54
2024/04/06 10:54:25;;;;;;;;;1.75;1.75;;;;;;;;5077841;27;45599;-62
2024/04/06 10:56:50;;;;;;;;;1.75;1.75;;;;;;;;5082460;27;45437;-62
2024/04/06 10:59:15;;;;;;;;;2.75;1.00;;;;;;;;5047802;27;48158;-58
2024/04/06 11:01:41;;;;;;;;;3.25;3.25;;;;;;;;5086397;27;45571;-58
2024/04/06 11:04:06;;;;;;;;;4.00;3.00;;;;;;;;5077505;27;46892;-58
2024/04/06 11:06:31;;;;;;;;;2.25;2.00;;;;;;;;5092671;27;45383;-55
2024/04/06 11:09:00;;;;;;;;;4.00;3.00;;;;;;;;5086089;27;45334;-55
2024/04/06 11:11:26;;;;;;;;;1.40;1.40;;;;;;;;5064296;27;45521;-56
2024/04/06 11:13:54;;;;;;;;;3.00;3.00;;;;;;;;5065349;27;45418;-63
2024/04/06 11:16:19;;;;;;;;;2.75;2.75;;;;;;;;5091344;27;45532;-59
2024/04/06 11:18:46;;;;;;;;;3.25;2.00;;;;;;;;5070949;27;46544;-63
2024/04/06 11:21:12;;;;;;;;;1.00;1.00;;;;;;;;5087745;27;46033;-62
2024/04/06 11:23:38;;;;;;;;;1.00;1.00;;;;;;;;5096341;27;45545;-63
2024/04/06 11:26:03;;;;;;;;;2.25;2.00;;;;;;;;5092357;27;45440;-63
2024/04/06 11:28:28;;;;;;;;;1.00;1.00;;;;;;;;5097197;27;46600;-53
2024/04/06 11:30:53;;;;;;;;;4.00;3.00;;;;;;;;5099208;27;45479;-62
2024/04/06 11:33:19;;;;;;;;;5.00;3.00;;;;;;;;5101576;27;45498;-64
2024/04/06 11:35:44;;;;;;;;;1.00;1.00;;;;;;;;5070497;28;45536;-65
2024/04/06 11:38:09;;;;;;;;;2.25;1.50;;;;;;;;5095668;27;46254;-58
2024/04/06 11:40:34;;;;;;;;;2.75;2.75;;;;;;;;5098140;27;45236;-65
2024/04/06 11:43:00;;;;;;;;;1.75;1.75;;;;;;;;5090472;27;45621;-63
2024/04/06 11:45:25;;;;;;;;;1.25;1.25;;;;;;;;5093418;27;45445;-56
2024/04/06 11:47:54;;;;;;;;;1.00;1.00;;;;;;;;5089531;27;45304;-54
2024/04/06 11:50:19;;;;;;;;;1.00;1.00;;;;;;;;5081660;27;45571;-62
2024/04/06 11:52:44;;;;;;;;;1.00;1.00;;;;;;;;5089891;27;45358;-61
2024/04/06 11:55:09;;;;;;;;;1.25;1.25;;;;;;;;5093295;27;45326;-51
2024/04/06 11:57:35;;;;;;;;;0.50;0.50;;;;;;;;5085873;27;45405;-61
2024/04/06 12:00:00;;;;;;;;;0.25;0.25;;;;;;;;5094273;27;45378;-49
2024/04/06 12:02:25;;;;;;;;;1.00;1.00;;;;;;;;5084818;27;45452;-56
2024/04/06 12:04:50;;;;;;;;;1.50;1.50;;;;;;;;5099277;27;45355;-65
2024/04/06 12:07:16;;;;;;;;;0.25;0.25;;;;;;;;5083022;27;45787;-54
2024/04/06 12:09:41;;;;;;;;;3.50;0.50;;;;;;;;5091313;27;45421;-53
2024/04/06 12:12:08;;;;;;;;;2.25;1.00;;;;;;;;5095733;27;45440;-61
2024/04/06 12:14:33;;;;;;;;;0.25;0.25;;;;;;;;5096546;27;45426;-62
2024/04/06 12:17:00;;;;;;;;;1.25;1.25;;;;;;;;5078391;27;47248;-63
2024/04/06 12:19:26;;;;;;;;;0.80;0.80;;;;;;;;5096357;27;45468;-63
2024/04/06 12:21:51;;;;;;;;;0.00;0.00;;;;;;;;5097953;27;45362;-63
2024/04/06 12:24:18;;;;;;;;;0.25;0.25;;;;;;;;5094635;27;45318;-64
2024/04/06 12:26:43;;;;;;;;;2.00;0.00;;;;;;;;5096064;27;45430;-65
2024/04/06 12:29:08;;;;;;;;;1.50;1.50;;;;;;;;5076750;27;45635;-63
2024/04/06 12:31:33;;;;;;;;;1.75;1.00;;;;;;;;5079143;27;46263;-52
2024/04/06 12:33:58;;;;;;;;;2.50;0.25;;;;;;;;5096625;27;45413;-60
2024/04/06 12:36:24;;;;;;;;;1.00;0.00;;;;;;;;5094801;27;46254;-64
2024/04/06 12:38:49;;;;;;;;;0.75;0.00;;;;;;;;5096781;27;45301;-63
2024/04/06 12:41:14;;;;;;;;;0.00;0.00;;;;;;;;5096568;27;46162;-65
2024/04/06 12:43:39;;;;;;;;;1.75;0.75;;;;;;;;5078469;27;45534;-57
2024/04/06 12:46:05;;;;;;;;;0.25;0.25;;;;;;;;5085862;27;46006;-48
2024/04/06 12:48:30;;;;;;;;;0.00;0.00;;;;;;;;5096002;27;45614;-50
2024/04/06 12:50:55;;;;;;;;;0.00;0.00;;;;;;;;5092215;27;45659;-61
2024/04/06 12:53:21;;;;;;;;;2.00;1.00;;;;;;;;5084611;27;45818;-63
2024/04/06 12:55:46;;;;;;;;;1.00;1.00;;;;;;;;5092470;27;45428;-64
2024/04/06 12:58:12;;;;;;;;;0.25;0.25;;;;;;;;5094363;27;45753;-64
2024/04/06 13:00:37;;;;;;;;;0.50;0.50;;;;;;;;5077012;27;45577;-61
2024/04/06 13:03:02;;;;;;;;;3.00;1.25;;;;;;;;5092231;27;45673;-61
2024/04/06 13:05:28;;;;;;;;;0.75;0.25;;;;;;;;5092055;27;47618;-61
2024/04/06 13:07:53;;;;;;;;;1.50;1.00;;;;;;;;5093922;27;45488;-61
2024/04/06 13:10:18;;;;;;;;;1.00;1.00;;;;;;;;5089559;27;45448;-56
2024/04/06 13:12:43;;;;;;;;;2.50;1.00;;;;;;;;5094995;27;45295;-60
2024/04/06 13:15:10;;;;;;;;;1.00;1.00;;;;;;;;5090218;27;46881;-59
2024/04/06 13:17:35;;;;;;;;;1.00;1.00;;;;;;;;5074842;27;46275;-50
2024/04/06 13:20:20;;;;;;;;;2.25;2.25;;;;;;;;5085892;27;45795;-60
2024/04/06 13:22:45;;;;;;;;;2.75;1.00;;;;;;;;5087586;27;45459;-50
2024/04/06 13:25:14;;;;;;;;;0.00;0.00;;;;;;;;5075609;27;47992;-54
2024/04/06 13:27:40;;;;;;;;;1.00;1.00;;;;;;;;5092728;27;45425;-61
2024/04/06 13:30:07;;;;;;;;;1.00;1.00;;;;;;;;5086306;27;45572;-61
2024/04/06 13:32:32;;;;;;;;;1.00;1.00;;;;;;;;5074939;27;45492;-58
2024/04/06 13:34:57;;;;;;;;;2.50;1.00;;;;;;;;5093067;27;45493;-49
2024/04/06 13:37:24;;;;;;;;;1.00;1.00;;;;;;;;5091923;27;45761;-62
2024/04/06 13:39:50;;;;;;;;;1.50;0.75;;;;;;;;5090617;27;45825;-55
2024/04/06 13:42:15;;;;;;;;;1.00;0.00;;;;;;;;5074503;27;45917;-61
2024/04/06 13:44:43;;;;;;;;;0.50;0.50;;;;;;;;5092499;27;46282;-60
2024/04/06 13:47:08;;;;;;;;;0.75;0.75;;;;;;;;5093775;27;45613;-62
2024/04/06 13:49:33;;;;;;;;;3.00;1.00;;;;;;;;5089814;27;45749;-59
2024/04/06 13:51:58;;;;;;;;;2.50;1.00;;;;;;;;5061166;27;45555;-61
2024/04/06 13:54:23;;;;;;;;;1.00;1.00;;;;;;;;5092638;27;46205;-60
2024/04/06 13:56:49;;;;;;;;;1.25;1.25;;;;;;;;5096526;27;45463;-61
2024/04/06 13:59:14;;;;;;;;;1.25;0.75;;;;;;;;5099058;27;45444;-62
2024/04/06 14:01:39;;;;;;;;;0.50;0.00;;;;;;;;5092579;27;45323;-61
2024/04/06 14:04:05;;;;;;;;;1.25;0.00;;;;;;;;5093158;27;45457;-62
2024/04/06 14:06:30;;;;;;;;;4.00;2.00;;;;;;;;5096891;27;45444;-52
2024/04/06 14:08:56;;;;;;;;;2.50;2.50;;;;;;;;5092725;27;45326;-61
2024/04/06 14:11:31;;;;;;;;;1.00;1.00;;;;;;;;5089687;27;45824;-62
2024/04/06 14:14:01;;;;;;;;;3.50;2.00;;;;;;;;5096675;27;45441;-61
2024/04/06 14:16:27;;;;;;;;;1.50;1.50;;;;;;;;5088958;27;45483;-63
2024/04/06 14:18:52;;;;;;;;;2.25;2.00;;;;;;;;5095742;27;45543;-53
2024/04/06 14:21:17;;;;;;;;;4.00;1.00;;;;;;;;5096977;27;45799;-52
2024/04/06 14:23:43;;;;;;;;;3.00;1.00;;;;;;;;5089297;27;46745;-57
2024/04/06 14:26:08;;;;;;;;;1.75;1.00;;;;;;;;5090620;27;45606;-66
2024/04/06 14:28:33;;;;;;;;;1.00;1.00;;;;;;;;5096213;27;45421;-60
2024/04/06 14:30:58;;;;;;;;;1.75;1.00;;;;;;;;5095352;27;45497;-57